Time;durP1;ratioP1;P1;durP2;ratioP2;P2;SDS_P1;SDS_P2;PMS_P1;PMS_P2;Temp;Humidity;BMP_temperature;BMP_pressure;BME280_temperature;BME280_humidity;BME280_pressure;Samples;Min_cycle;Max_cycle;Signal;HPM_P1;HPM_P2
2023/04/29 00:01:57;;;;;;;2.72;2.08;;;12.10;99.90;;;11.75;100.00;96914.19;5056210;28;20089;-39
2023/04/29 00:04:22;;;;;;;3.20;1.83;;;12.10;99.90;;;11.73;100.00;96902.00;5055537;28;20039;-40
2023/04/29 00:06:48;;;;;;;2.67;2.22;;;12.10;99.90;;;11.73;100.00;96905.47;5056282;28;20036;-38
2023/04/29 00:09:14;;;;;;;2.47;1.83;;;12.10;99.90;;;11.71;100.00;96906.50;5057105;28;20094;-39
2023/04/29 00:11:40;;;;;;;2.83;2.10;;;12.10;99.90;;;11.72;100.00;96903.78;5056060;28;20594;-38
2023/04/29 00:14:05;;;;;;;2.97;1.77;;;12.10;99.90;;;11.72;100.00;96901.16;5055810;28;20025;-38
2023/04/29 00:16:31;;;;;;;2.17;1.77;;;12.10;99.90;;;11.73;100.00;96909.91;5057185;28;20051;-38
2023/04/29 00:18:58;;;;;;;2.08;1.88;;;12.10;99.90;;;11.72;100.00;96903.78;5056407;28;20025;-38
2023/04/29 00:21:26;;;;;;;2.45;2.03;;;12.10;99.90;;;11.71;100.00;96909.16;5057744;28;20813;-38
2023/04/29 00:23:52;;;;;;;5.05;1.65;;;12.10;99.90;;;11.70;100.00;96904.78;5056963;28;20122;-38
2023/04/29 00:26:18;;;;;;;2.25;2.05;;;12.00;99.90;;;11.69;100.00;96901.28;5055611;28;20675;-38
2023/04/29 00:28:44;;;;;;;2.80;2.03;;;12.00;99.90;;;11.64;100.00;96903.31;5056146;28;20090;-38
2023/04/29 00:31:10;;;;;;;2.70;2.00;;;12.00;99.90;;;11.61;100.00;96900.81;5056411;28;20286;-39
2023/04/29 00:33:35;;;;;;;2.67;1.80;;;12.00;99.90;;;11.58;100.00;96896.53;5055554;28;20495;-39
2023/04/29 00:36:02;;;;;;;3.47;1.88;;;11.90;99.90;;;11.44;100.00;96883.16;5054928;28;20588;-38
2023/04/29 00:38:28;;;;;;;2.50;1.92;;;11.90;99.90;;;11.43;100.00;96887.59;5038101;28;20774;-38
2023/04/29 00:40:54;;;;;;;3.80;1.95;;;11.90;99.90;;;11.45;100.00;96904.22;5055440;28;20051;-38
2023/04/29 00:43:20;;;;;;;2.13;1.92;;;11.90;99.90;;;11.40;100.00;96892.16;5038231;28;20033;-39
2023/04/29 00:45:46;;;;;;;2.60;2.20;;;11.80;99.90;;;11.45;100.00;96906.00;5055387;28;20487;-38
2023/04/29 00:48:14;;;;;;;2.05;1.85;;;11.80;99.90;;;11.52;100.00;96906.53;5038921;28;20024;-39
2023/04/29 00:50:41;;;;;;;2.35;2.00;;;11.90;99.90;;;11.56;100.00;96903.69;5056467;28;20115;-39
2023/04/29 00:53:08;;;;;;;3.20;2.03;;;11.90;99.90;;;11.57;100.00;96915.09;5054029;28;20051;-38
2023/04/29 00:55:34;;;;;;;2.55;2.20;;;11.90;99.90;;;11.58;100.00;96907.09;5064790;28;20119;-38
2023/04/29 00:58:02;;;;;;;1.75;1.63;;;11.90;99.90;;;11.59;100.00;96903.53;5028473;28;20037;-41
2023/04/29 01:00:29;;;;;;;3.03;2.10;;;11.90;99.90;;;11.60;100.00;96914.97;5049464;28;20393;-39
2023/04/29 01:02:56;;;;;;;2.78;1.80;;;11.90;99.90;;;11.54;100.00;96899.38;5030501;28;20071;-38
2023/04/29 01:05:23;;;;;;;5.57;2.90;;;11.90;99.90;;;11.58;100.00;96911.53;5055703;28;20444;-39
2023/04/29 01:08:17;;;;;;;3.35;2.00;;;11.90;99.90;;;11.56;100.00;96916.03;5054234;28;20028;-38
2023/04/29 01:10:55;;;;;;;5.03;2.05;;;11.90;99.90;;;11.59;100.00;96915.88;5037822;28;20036;-39
2023/04/29 01:13:29;;;;;;;2.13;1.92;;;11.90;99.90;;;11.53;100.00;96911.75;5056925;28;20123;-39
2023/04/29 01:16:00;;;;;;;3.75;2.20;;;11.90;99.90;;;11.55;100.00;96915.16;5054784;28;20086;-38
2023/04/29 01:18:57;;;;;;;3.38;2.22;;;11.90;99.90;;;11.52;100.00;96914.47;5055555;28;20032;-39
2023/04/29 01:21:24;;;;;;;2.72;2.15;;;11.90;99.90;;;11.57;100.00;96921.22;5038924;28;20036;-38
2023/04/29 01:23:54;;;;;;;3.33;2.05;;;11.90;99.90;;;11.57;100.00;96913.31;5054420;28;20033;-38
2023/04/29 01:26:21;;;;;;;5.18;2.10;;;11.90;99.90;;;11.59;100.00;96907.94;5057362;28;20423;-39
2023/04/29 01:29:23;;;;;;;3.03;2.38;;;11.90;99.90;;;11.57;100.00;96921.22;5057270;28;20032;-39
2023/04/29 01:32:03;;;;;;;4.10;2.30;;;11.90;99.90;;;11.49;100.00;96904.91;5032120;28;20552;-38
2023/04/29 01:34:59;;;;;;;3.40;2.40;;;11.90;99.90;;;11.60;100.00;96915.81;5054694;28;20093;-38
2023/04/29 01:37:49;;;;;;;3.38;2.40;;;12.00;99.90;;;11.56;100.00;96919.53;5036426;28;20358;-38
2023/04/29 01:40:32;;;;;;;2.70;2.08;;;11.90;99.90;;;11.53;100.00;96917.03;5038837;28;20032;-39
2023/04/29 01:43:03;;;;;;;3.15;2.00;;;11.90;99.90;;;11.47;100.00;96909.41;5041876;28;20036;-38
2023/04/29 01:45:31;;;;;;;3.17;2.30;;;11.90;99.90;;;11.48;100.00;96919.03;5041512;28;20036;-38
2023/04/29 01:47:58;;;;;;;3.63;2.20;;;11.90;99.90;;;11.45;100.00;96917.41;5060566;28;20082;-38
2023/04/29 01:50:23;;;;;;;2.45;2.15;;;11.80;99.90;;;11.36;100.00;96904.66;5042220;28;20544;-38
2023/04/29 01:52:49;;;;;;;2.85;2.20;;;11.80;99.90;;;11.41;100.00;96910.56;5057055;28;20058;-38
2023/04/29 01:55:16;;;;;;;4.35;2.03;;;11.80;99.90;;;11.45;100.00;96913.91;5059375;28;20486;-38
2023/04/29 01:57:43;;;;;;;4.68;2.00;;;11.80;99.90;;;11.43;100.00;96914.00;5059616;28;20662;-39
2023/04/29 02:00:09;;;;;;;2.60;2.38;;;11.80;99.90;;;11.42;100.00;96912.28;5058803;28;20039;-38
2023/04/29 02:02:35;;;;;;;2.20;1.90;;;11.80;99.90;;;11.36;100.00;96911.69;5060181;28;20566;-39
2023/04/29 02:05:01;;;;;;;3.90;2.13;;;11.80;99.90;;;11.34;100.00;96910.91;5060343;28;20024;-39
2023/04/29 02:07:26;;;;;;;2.25;2.05;;;11.70;99.90;;;11.36;100.00;96914.34;5061033;28;20476;-39
2023/04/29 02:09:52;;;;;;;3.10;2.33;;;11.70;99.90;;;11.37;100.00;96916.91;5058280;28;20484;-39
2023/04/29 02:12:18;;;;;;;2.42;2.00;;;11.70;99.90;;;11.30;100.00;96912.00;5057444;28;20536;-39
2023/04/29 02:14:43;;;;;;;3.58;2.15;;;11.70;99.90;;;11.28;100.00;96912.91;5058663;28;20036;-40
2023/04/29 02:17:09;;;;;;;2.17;1.80;;;11.70;99.90;;;11.27;100.00;96913.03;5060476;28;20075;-39
2023/04/29 02:19:35;;;;;;;3.38;2.40;;;11.60;99.90;;;11.23;100.00;96911.44;5058862;28;20707;-40
2023/04/29 02:22:01;;;;;;;4.45;2.17;;;11.60;99.90;;;11.25;100.00;96914.84;5039372;28;20365;-39
2023/04/29 02:24:27;;;;;;;4.05;1.95;;;11.60;99.90;;;11.24;100.00;96919.28;5058408;28;20158;-39
2023/04/29 02:26:52;;;;;;;2.17;1.98;;;11.60;99.90;;;11.21;100.00;96927.34;5055209;28;20508;-39
2023/04/29 02:29:18;;;;;;;2.65;1.98;;;11.60;99.90;;;11.21;100.00;96923.84;5058992;28;20028;-39
2023/04/29 02:31:44;;;;;;;2.40;1.83;;;11.60;99.90;;;11.28;100.00;96920.00;5055599;28;20025;-39
2023/04/29 02:34:09;;;;;;;3.78;2.10;;;11.60;99.90;;;11.23;100.00;96922.88;5059668;28;20733;-39
2023/04/29 02:36:35;;;;;;;2.85;2.00;;;11.60;99.90;;;11.17;100.00;96915.22;5055460;28;20509;-41
2023/04/29 02:39:01;;;;;;;2.70;1.92;;;11.60;99.90;;;11.15;100.00;96919.72;5055351;28;20024;-38
2023/04/29 02:41:26;;;;;;;3.35;1.95;;;11.60;99.90;;;11.17;100.00;96917.84;5046821;28;20066;-39
2023/04/29 02:43:52;;;;;;;4.07;1.80;;;11.60;99.90;;;11.12;100.00;96925.13;5053892;28;20051;-39
2023/04/29 02:46:18;;;;;;;2.85;1.92;;;11.50;99.90;;;11.04;100.00;96911.47;5051862;28;20295;-39
2023/04/29 02:48:44;;;;;;;5.22;2.00;;;11.50;99.90;;;11.06;100.00;96918.34;5056555;28;20059;-39
2023/04/29 02:51:10;;;;;;;2.28;1.80;;;11.50;99.90;;;11.04;100.00;96922.84;5057306;28;20123;-38
2023/04/29 02:53:35;;;;;;;2.88;1.40;;;11.50;99.90;;;10.97;100.00;96917.94;5056439;28;20307;-39
2023/04/29 02:56:01;;;;;;;3.67;2.20;;;11.40;99.90;;;10.96;100.00;96918.84;5055040;28;20032;-39
2023/04/29 02:58:27;;;;;;;2.75;1.95;;;11.40;99.90;;;10.93;100.00;96919.00;5052382;28;23945;-39
2023/04/29 03:00:53;;;;;;;2.97;1.77;;;11.30;99.90;;;10.84;100.00;96926.41;5050150;28;20024;-39
2023/04/29 03:03:18;;;;;;;3.47;1.70;;;11.30;99.90;;;10.79;100.00;96919.66;5060143;28;20032;-39
2023/04/29 03:05:44;;;;;;;3.60;1.90;;;11.20;99.90;;;10.76;100.00;96923.25;5051928;28;20090;-39
2023/04/29 03:08:10;;;;;;;4.00;2.30;;;11.20;99.90;;;10.79;100.00;96931.03;5055032;28;20025;-39
2023/04/29 03:10:36;;;;;;;2.72;2.10;;;11.20;99.90;;;10.75;100.00;96932.13;5053572;28;20158;-39
2023/04/29 03:13:01;;;;;;;2.50;1.92;;;11.20;99.90;;;10.76;100.00;96928.53;5056955;28;20582;-40
2023/04/29 03:15:28;;;;;;;2.65;2.10;;;11.20;99.90;;;10.72;100.00;96931.41;5057254;28;20028;-38
2023/04/29 03:17:54;;;;;;;4.32;2.10;;;11.10;99.90;;;10.74;100.00;96934.81;5053835;28;20503;-40
2023/04/29 03:20:20;;;;;;;4.80;2.22;;;11.10;99.90;;;10.76;100.00;96932.97;5055519;28;20039;-39
2023/04/29 03:22:45;;;;;;;3.92;2.33;;;11.10;99.90;;;10.74;100.00;96935.66;5056265;28;20041;-39
2023/04/29 03:25:12;;;;;;;4.32;1.98;;;11.10;99.90;;;10.75;100.00;96936.50;5056843;28;20044;-40
2023/04/29 03:27:37;;;;;;;2.60;2.20;;;11.20;99.90;;;10.75;100.00;96934.75;5057002;28;20036;-39
2023/04/29 03:30:05;;;;;;;2.97;2.03;;;11.20;99.90;;;10.74;100.00;96930.38;5056644;28;20381;-39
2023/04/29 03:32:31;;;;;;;2.30;2.10;;;11.20;99.90;;;10.77;100.00;96919.72;5056004;28;20115;-38
2023/04/29 03:34:57;;;;;;;3.80;2.30;;;11.20;99.90;;;10.81;100.00;96920.44;5052096;28;20021;-39
2023/04/29 03:37:22;;;;;;;3.70;2.08;;;11.20;99.90;;;10.91;100.00;96926.13;5055359;28;20024;-38
2023/04/29 03:39:48;;;;;;;3.35;2.28;;;11.30;99.90;;;10.86;100.00;96923.72;5053897;28;20039;-39
2023/04/29 03:42:14;;;;;;;2.85;2.20;;;11.30;99.90;;;10.81;100.00;96915.16;5056018;28;20040;-38
2023/04/29 03:44:39;;;;;;;2.40;1.90;;;11.30;99.90;;;10.75;100.00;96916.28;5054743;28;20420;-39
2023/04/29 03:47:05;;;;;;;3.17;2.20;;;11.20;99.90;;;10.67;100.00;96919.25;5055435;28;20039;-40
2023/04/29 03:49:31;;;;;;;2.10;1.90;;;11.10;99.90;;;10.66;100.00;96920.19;5052161;28;20466;-39
2023/04/29 03:51:57;;;;;;;2.13;1.77;;;11.10;99.90;;;10.59;100.00;96921.41;5054126;28;20121;-39
2023/04/29 03:54:22;;;;;;;3.65;1.90;;;11.00;99.90;;;10.53;100.00;96926.06;5054368;28;20032;-39
2023/04/29 03:56:48;;;;;;;2.13;1.70;;;11.00;99.90;;;10.49;100.00;96928.00;5052764;28;20120;-39
2023/04/29 03:59:14;;;;;;;4.45;1.85;;;10.90;99.90;;;10.40;100.00;96920.50;5034551;28;20120;-39
2023/04/29 04:01:39;;;;;;;2.20;2.00;;;10.80;99.90;;;10.31;100.00;96927.88;5050452;28;20070;-39
2023/04/29 04:04:05;;;;;;;2.60;2.15;;;10.80;99.90;;;10.23;100.00;96927.31;5057379;28;20060;-38
2023/04/29 04:06:31;;;;;;;3.35;1.92;;;10.70;99.90;;;10.17;100.00;96932.84;5054467;28;20450;-39
2023/04/29 04:08:57;;;;;;;2.47;1.80;;;10.60;99.90;;;10.16;100.00;96928.50;5051860;28;20300;-39
2023/04/29 04:11:22;;;;;;;1.73;1.63;;;10.60;99.90;;;10.15;100.00;96933.84;5058852;28;20684;-39
2023/04/29 04:13:48;;;;;;;2.03;1.80;;;10.60;99.90;;;10.13;100.00;96933.91;5054830;28;20051;-39
2023/04/29 04:16:14;;;;;;;4.13;2.05;;;10.50;99.90;;;10.10;100.00;96942.81;5056746;28;20044;-39
2023/04/29 04:18:40;;;;;;;2.63;2.00;;;10.50;99.90;;;10.07;100.00;96952.63;5054366;28;20033;-39
2023/04/29 04:21:07;;;;;;;2.50;2.20;;;10.50;99.90;;;10.04;100.00;96948.31;5054990;28;20048;-39
2023/04/29 04:23:33;;;;;;;2.10;1.90;;;10.50;99.90;;;10.02;100.00;96958.06;5058968;28;20334;-39
2023/04/29 04:25:59;;;;;;;3.65;1.80;;;10.50;99.90;;;9.99;100.00;96958.19;5054880;28;20332;-39
2023/04/29 04:28:24;;;;;;;2.10;1.70;;;10.40;99.90;;;9.96;100.00;96957.44;5058120;28;20499;-39
2023/04/29 04:30:50;;;;;;;2.28;2.05;;;10.40;99.90;;;9.93;100.00;96966.34;5053166;28;20093;-38
2023/04/29 04:33:16;;;;;;;4.15;2.58;;;10.40;99.90;;;10.01;100.00;96966.88;5053817;28;20029;-39
2023/04/29 04:35:42;;;;;;;5.43;2.13;;;10.40;99.90;;;9.99;100.00;96970.50;5054934;28;20058;-39
2023/04/29 04:38:09;;;;;;;3.38;2.20;;;10.40;99.90;;;9.89;100.00;96954.25;5053455;28;20040;-39
2023/04/29 04:40:35;;;;;;;3.03;2.28;;;10.40;99.90;;;10.01;100.00;96974.78;5056213;28;20254;-39
2023/04/29 04:43:00;;;;;;;3.67;2.75;;;10.40;99.90;;;10.02;100.00;96973.88;5055253;28;20032;-39
2023/04/29 04:45:29;;;;;;;2.67;2.47;;;10.50;99.90;;;10.00;100.00;96970.44;5057349;28;20031;-38
2023/04/29 04:47:54;;;;;;;3.42;2.28;;;10.50;99.90;;;10.02;100.00;96983.56;5053428;28;20085;-39
2023/04/29 04:50:20;;;;;;;4.68;2.53;;;10.50;99.90;;;9.91;100.00;96961.16;5053973;28;20442;-39
2023/04/29 04:52:46;;;;;;;4.68;2.50;;;10.50;99.90;;;9.97;100.00;96972.34;5054873;28;20036;-39
2023/04/29 04:55:12;;;;;;;2.58;2.35;;;10.50;99.90;;;9.98;100.00;96993.38;5054726;28;20047;-39
2023/04/29 04:57:37;;;;;;;3.17;2.42;;;10.50;99.90;;;9.97;100.00;96996.91;5055594;28;20633;-40
2023/04/29 05:00:04;;;;;;;2.50;2.30;;;10.40;99.90;;;9.98;100.00;96997.75;5054506;28;20420;-40
2023/04/29 05:02:29;;;;;;;4.82;2.75;;;10.50;99.90;;;9.98;100.00;97001.28;5057054;28;20158;-39
2023/04/29 05:04:55;;;;;;;4.30;2.78;;;10.40;99.90;;;10.02;100.00;97002.00;5054063;28;20387;-38
2023/04/29 05:07:21;;;;;;;9.35;3.58;;;10.50;99.90;;;10.09;100.00;97000.81;5055164;28;20047;-39
2023/04/29 05:09:47;;;;;;;4.30;3.88;;;10.50;99.90;;;10.28;100.00;97011.44;5051794;28;20037;-39
2023/04/29 05:12:13;;;;;;;4.97;4.13;;;10.70;99.90;;;10.47;100.00;97017.69;5052514;28;20476;-39
2023/04/29 05:14:38;;;;;;;5.25;4.45;;;10.90;99.90;;;10.60;100.00;97009.25;5059032;28;20460;-39
2023/04/29 05:17:04;;;;;;;6.55;4.50;;;11.10;99.90;;;10.67;100.00;97003.63;5056749;28;20616;-39
2023/04/29 05:19:30;;;;;;;5.07;3.83;;;11.20;99.90;;;10.75;100.00;97013.00;5061022;28;20052;-39
2023/04/29 05:21:55;;;;;;;9.13;4.28;;;11.30;99.90;;;10.83;100.00;97019.66;5057072;28;20373;-39
2023/04/29 05:24:21;;;;;;;4.80;4.00;;;11.30;99.90;;;11.00;100.00;97032.13;5058457;28;20113;-39
2023/04/29 05:26:48;;;;;;;4.43;3.90;;;11.50;99.90;;;11.11;100.00;97026.34;5059408;28;20032;-39
2023/04/29 05:29:14;;;;;;;4.03;3.60;;;11.60;99.90;;;11.18;100.00;97029.56;5058439;28;20456;-39
2023/04/29 05:31:40;;;;;;;6.75;4.07;;;11.70;99.90;;;11.21;100.00;97022.34;5059127;28;20049;-40
2023/04/29 05:34:05;;;;;;;6.63;3.83;;;11.80;99.90;;;11.37;100.00;97034.88;5038365;28;20111;-39
2023/04/29 05:36:31;;;;;;;4.80;3.88;;;11.90;99.90;;;11.41;100.00;97036.44;5058663;28;20028;-38
2023/04/29 05:38:57;;;;;;;4.55;3.85;;;12.00;99.90;;;11.46;100.00;97023.88;5058430;28;20025;-39
2023/04/29 05:41:23;;;;;;;5.45;4.20;;;12.00;99.90;;;11.65;100.00;97040.56;5060184;28;20426;-39
2023/04/29 05:43:50;;;;;;;6.68;4.00;;;12.10;99.90;;;11.76;100.00;97041.88;5057885;28;20037;-40
2023/04/29 05:46:16;;;;;;;6.80;3.45;;;12.20;99.90;;;11.89;100.00;97048.25;5058100;28;20033;-39
2023/04/29 05:48:42;;;;;;;6.55;4.10;;;12.30;99.90;;;11.95;100.00;97053.31;5056489;28;20048;-40
2023/04/29 05:51:07;;;;;;;5.18;4.00;;;12.40;99.90;;;12.10;100.00;97050.84;5056974;28;20052;-39
2023/04/29 05:53:34;;;;;;;5.35;3.65;;;12.50;99.90;;;12.21;100.00;97053.81;5058781;28;20036;-39
2023/04/29 05:56:03;;;;;;;4.05;3.38;;;12.60;99.90;;;12.32;100.00;97064.72;5059426;28;20028;-39
2023/04/29 05:58:29;;;;;;;4.63;3.17;;;12.70;99.90;;;12.37;100.00;97070.63;5057575;28;20025;-39
2023/04/29 06:00:55;;;;;;;4.32;3.33;;;12.80;99.90;;;12.41;100.00;97076.63;5058548;28;20109;-39
2023/04/29 06:03:21;;;;;;;4.90;3.08;;;12.90;99.90;;;12.47;100.00;97080.75;5056726;28;20032;-39
2023/04/29 06:05:47;;;;;;;4.55;3.42;;;12.90;99.90;;;12.48;100.00;97080.69;5056865;28;20029;-40
2023/04/29 06:08:12;;;;;;;6.05;3.22;;;12.90;99.90;;;12.48;100.00;97085.13;5058423;28;20056;-40
2023/04/29 06:10:38;;;;;;;3.80;3.17;;;12.90;99.90;;;12.52;100.00;97084.88;5058650;28;20590;-39
2023/04/29 06:13:04;;;;;;;3.53;3.20;;;12.90;99.90;;;12.63;100.00;97092.28;5057217;28;20033;-39
2023/04/29 06:15:30;;;;;;;6.40;3.40;;;13.10;99.90;;;12.71;100.00;97092.75;5049819;28;20028;-40
2023/04/29 06:17:56;;;;;;;7.07;3.78;;;13.20;99.90;;;12.94;100.00;97090.75;5052402;28;20067;-39
2023/04/29 06:20:21;;;;;;;3.85;3.15;;;13.40;99.90;;;13.03;100.00;97100.84;5059901;28;20036;-39
2023/04/29 06:22:48;;;;;;;4.32;3.50;;;13.50;99.90;;;13.15;100.00;97094.06;5057652;28;20079;-39
2023/04/29 06:25:13;;;;;;;6.50;3.28;;;13.60;99.90;;;13.32;100.00;97107.31;5057340;28;20019;-39
2023/04/29 06:27:39;;;;;;;4.25;3.30;;;13.80;99.90;;;13.36;100.00;97108.00;5056759;28;20028;-39
2023/04/29 06:30:06;;;;;;;3.70;3.38;;;13.80;99.90;;;13.33;100.00;97113.44;5058675;28;20051;-39
2023/04/29 06:32:32;;;;;;;5.80;3.45;;;13.80;99.90;;;13.08;100.00;97111.19;5056950;28;20033;-40
2023/04/29 06:34:58;;;;;;;3.95;3.33;;;13.70;99.90;;;12.92;100.00;97121.72;5056280;28;20091;-40
2023/04/29 06:37:24;;;;;;;5.15;3.30;;;13.50;99.90;;;12.84;100.00;97118.63;5057621;28;20516;-39
2023/04/29 06:39:49;;;;;;;3.88;3.40;;;13.30;99.90;;;12.76;100.00;97126.94;5057226;28;20044;-39
2023/04/29 06:42:15;;;;;;;4.60;3.47;;;13.20;99.90;;;12.84;100.00;97126.56;5057344;28;20047;-39
2023/04/29 06:44:41;;;;;;;4.10;3.33;;;13.30;99.90;;;13.10;100.00;97136.66;5054919;28;20032;-39
2023/04/29 06:47:07;;;;;;;3.58;2.95;;;13.50;99.90;;;13.12;100.00;97145.38;5050874;28;20033;-39
2023/04/29 06:49:33;;;;;;;3.95;2.45;;;13.70;99.90;;;13.24;100.00;97138.59;5057029;28;20028;-39
2023/04/29 06:52:00;;;;;;;2.72;2.20;;;13.80;99.90;;;13.34;100.00;97139.88;5058146;28;20054;-39
2023/04/29 06:54:27;;;;;;;4.05;2.35;;;13.80;99.90;;;13.40;100.00;97148.44;5057375;28;20063;-41
2023/04/29 06:56:53;;;;;;;3.15;2.03;;;13.80;99.90;;;13.41;100.00;97148.34;5055271;28;20042;-39
2023/04/29 06:59:19;;;;;;;4.20;2.05;;;13.80;99.90;;;13.36;100.00;97148.56;5057866;28;20101;-39
2023/04/29 07:01:44;;;;;;;2.72;2.13;;;13.80;99.90;;;13.39;100.00;97155.53;5053603;28;20543;-40
2023/04/29 07:04:11;;;;;;;3.45;2.10;;;13.80;99.90;;;13.81;100.00;97159.47;5058086;28;20032;-39
2023/04/29 07:06:37;;;;;;;4.35;1.92;;;14.20;99.90;;;14.12;100.00;97169.28;5054306;28;20025;-40
2023/04/29 07:09:02;;;;;;;2.33;1.70;;;14.70;99.90;;;14.60;100.00;97161.34;5043800;28;20508;-40
2023/04/29 07:11:28;;;;;;;2.00;1.77;;;15.00;99.90;;;14.81;100.00;97153.09;5054364;28;20028;-39
2023/04/29 07:13:54;;;;;;;3.70;2.00;;;15.20;99.90;;;14.83;100.00;97164.47;5052435;28;20048;-39
2023/04/29 07:16:20;;;;;;;2.15;1.60;;;15.20;99.90;;;14.72;100.00;97178.38;5058157;28;20028;-37
2023/04/29 07:18:48;;;;;;;4.10;1.73;;;15.10;99.90;;;14.50;100.00;97170.75;5056365;28;20115;-39
2023/04/29 07:21:14;;;;;;;8.05;1.75;;;15.00;99.90;;;14.32;100.00;97175.28;5059328;28;20567;-38
2023/04/29 07:23:39;;;;;;;2.67;1.50;;;14.80;99.90;;;14.01;100.00;97176.09;5057150;28;20119;-38
2023/04/29 07:26:14;;;;;;;2.03;1.60;;;14.50;99.90;;;13.80;100.00;97178.09;5056930;28;20067;-38
2023/04/29 07:28:41;;;;;;;3.08;1.60;;;14.40;99.90;;;13.68;100.00;97183.13;5055316;28;20028;-38
2023/04/29 07:31:07;;;;;;;4.47;1.67;;;14.20;99.90;;;13.60;100.00;97184.47;5053545;28;20052;-38
2023/04/29 07:33:33;;;;;;;2.55;1.50;;;14.20;99.90;;;13.61;100.00;97184.38;5053912;28;20024;-39
2023/04/29 07:35:59;;;;;;;5.15;1.80;;;14.20;99.90;;;13.83;100.00;97185.91;5055157;28;20024;-39
2023/04/29 07:38:25;;;;;;;2.90;1.65;;;14.30;99.90;;;13.90;100.00;97171.38;5056075;28;20029;-39
2023/04/29 07:40:51;;;;;;;4.28;1.80;;;14.50;99.90;;;14.09;100.00;97188.00;5051837;28;20036;-38
2023/04/29 07:43:16;;;;;;;2.38;1.77;;;14.60;99.90;;;14.34;100.00;97178.72;5057458;28;20064;-38
2023/04/29 07:45:42;;;;;;;3.40;1.85;;;14.80;99.90;;;14.59;100.00;97185.31;5054310;28;20123;-38
2023/04/29 07:48:08;;;;;;;2.15;1.50;;;15.00;99.90;;;14.72;100.00;97190.78;5053284;28;20032;-38
2023/04/29 07:50:35;;;;;;;3.47;1.55;;;15.20;99.90;;;14.76;100.00;97190.50;5058383;28;20481;-38
2023/04/29 07:53:01;;;;;;;2.38;1.70;;;15.30;99.90;;;14.74;100.00;97192.41;5055943;28;20028;-38
2023/04/29 07:55:28;;;;;;;5.43;1.70;;;15.30;99.90;;;14.61;100.00;97194.06;5053670;28;20081;-38
2023/04/29 07:57:55;;;;;;;2.22;1.60;;;15.20;99.90;;;14.64;100.00;97200.06;5050575;28;20114;-40
2023/04/29 08:00:22;;;;;;;3.88;1.60;;;15.20;99.90;;;14.59;100.00;97202.09;5057924;28;20481;-39
2023/04/29 08:02:51;;;;;;;3.22;1.40;;;15.30;99.90;;;14.70;100.00;97190.88;5043550;28;20476;-39
2023/04/29 08:05:18;;;;;;;3.40;1.80;;;15.20;99.90;;;14.72;100.00;97204.06;5057554;28;20024;-40
2023/04/29 08:07:43;;;;;;;2.80;1.83;;;15.30;99.90;;;14.67;100.00;97210.47;5052768;28;20032;-38
2023/04/29 08:10:09;;;;;;;1.77;1.65;;;15.30;99.90;;;14.79;100.00;97206.28;5057410;28;20094;-39
2023/04/29 08:12:35;;;;;;;3.25;1.40;;;15.40;99.90;;;15.06;100.00;97206.47;5057349;28;20044;-39
2023/04/29 08:15:01;;;;;;;2.28;1.60;;;15.60;99.90;;;15.17;100.00;97215.63;5058409;28;20031;-40
2023/04/29 08:17:27;;;;;;;2.65;1.52;;;15.70;99.90;;;15.24;100.00;97209.03;5058036;28;20110;-39
2023/04/29 08:19:52;;;;;;;1.90;1.58;;;15.80;99.90;;;15.30;100.00;97213.13;5057527;28;20025;-39
2023/04/29 08:22:18;;;;;;;2.65;1.67;;;15.90;99.90;;;15.51;100.00;97211.00;5060238;28;20043;-38
2023/04/29 08:24:44;;;;;;;2.30;1.42;;;16.00;99.90;;;15.71;100.00;97213.28;5056550;28;20231;-38
2023/04/29 08:27:10;;;;;;;1.95;1.50;;;16.20;99.90;;;15.82;100.00;97218.81;5055381;28;20047;-38
2023/04/29 08:29:36;;;;;;;7.28;1.50;;;16.30;99.90;;;15.75;100.00;97222.81;5057235;28;20129;-38
2023/04/29 08:32:02;;;;;;;5.15;1.52;;;16.20;99.90;;;15.48;100.00;97205.84;5057993;28;20031;-38
2023/04/29 08:34:27;;;;;;;2.35;1.55;;;16.10;99.90;;;15.40;100.00;97225.75;5058429;28;20032;-39
2023/04/29 08:36:53;;;;;;;3.35;1.70;;;15.90;99.90;;;15.19;100.00;97219.91;5056174;28;20020;-38
2023/04/29 08:39:19;;;;;;;1.98;1.40;;;15.70;99.90;;;14.86;100.00;97210.28;5058472;28;20036;-37
2023/04/29 08:41:50;;;;;;;4.53;1.67;;;15.50;99.90;;;14.79;100.00;97224.84;5056057;28;20025;-37
2023/04/29 08:44:16;;;;;;;1.77;1.58;;;15.30;99.90;;;14.81;100.00;97219.47;5058613;28;20033;-38
2023/04/29 08:46:44;;;;;;;2.63;1.80;;;15.20;99.90;;;14.68;100.00;97219.31;5057560;28;20036;-38
2023/04/29 08:49:11;;;;;;;5.13;1.65;;;15.10;99.90;;;14.52;100.00;97206.84;5058349;28;20213;-38
2023/04/29 08:51:37;;;;;;;3.00;1.50;;;15.10;99.90;;;14.63;100.00;97224.88;5038682;28;20037;-38
2023/04/29 08:54:03;;;;;;;4.90;2.20;;;15.10;99.90;;;14.65;100.00;97227.44;5058783;28;20051;-38
2023/04/29 08:56:30;;;;;;;2.20;1.83;;;15.20;99.90;;;14.68;100.00;97228.13;5056620;28;20033;-38
2023/04/29 08:58:59;;;;;;;2.85;1.90;;;15.30;99.90;;;14.70;100.00;97231.53;5054656;28;20522;-38
2023/04/29 09:01:28;;;;;;;2.40;1.50;;;15.30;99.90;;;14.88;100.00;97228.78;5056955;28;20652;-38
2023/04/29 09:04:21;;;;;;;2.15;1.55;;;15.40;99.90;;;15.11;100.00;97232.78;5056518;28;20054;-38
2023/04/29 09:06:47;;;;;;;2.50;1.63;;;15.60;99.90;;;15.38;100.00;97227.66;5056259;28;20056;-38
2023/04/29 09:09:14;;;;;;;3.10;1.95;;;15.80;99.90;;;15.57;100.00;97235.38;5056368;28;20033;-38
2023/04/29 09:11:40;;;;;;;2.97;1.50;;;16.10;99.90;;;15.75;100.00;97236.09;5036479;28;20047;-39
2023/04/29 09:14:07;;;;;;;1.90;1.65;;;16.20;99.90;;;15.81;100.00;97229.59;5056478;28;20029;-38
2023/04/29 09:16:34;;;;;;;4.05;1.92;;;16.20;99.90;;;15.67;100.00;97241.00;5054282;28;20476;-39
2023/04/29 09:18:59;;;;;;;2.53;1.50;;;16.30;99.90;;;15.75;100.00;97230.78;5056093;28;20036;-38
2023/04/29 09:21:32;;;;;;;3.53;2.20;;;16.30;99.90;;;15.79;100.00;97228.78;5057437;28;20028;-38
2023/04/29 09:24:00;;;;;;;2.42;2.00;;;16.30;99.90;;;15.89;100.00;97245.06;5054791;28;20449;-38
2023/04/29 09:26:27;;;;;;;3.50;1.95;;;16.40;99.90;;;16.05;100.00;97240.50;5057626;28;20055;-38
2023/04/29 09:29:14;;;;;;;3.28;2.00;;;16.50;99.90;;;16.20;100.00;97246.69;5034960;28;20059;-38
2023/04/29 09:31:41;;;;;;;4.85;2.30;;;16.60;99.90;;;16.20;100.00;97246.69;5055415;28;20025;-38
2023/04/29 09:34:07;;;;;;;4.18;1.83;;;16.70;99.90;;;16.34;100.00;97243.16;5037675;28;20036;-38
2023/04/29 09:36:47;;;;;;;3.05;1.92;;;16.80;99.90;;;16.26;100.00;97250.75;5054170;28;20037;-38
2023/04/29 09:39:17;;;;;;;3.05;2.17;;;16.80;99.90;;;16.12;100.00;97251.63;5055480;28;20032;-38
2023/04/29 09:41:58;;;;;;;3.10;1.67;;;16.80;99.90;;;16.11;100.00;97253.41;5057061;28;20078;-38
2023/04/29 09:44:26;;;;;;;1.95;1.70;;;16.70;99.90;;;15.99;100.00;97259.53;5040732;28;20028;-39
2023/04/29 09:47:05;;;;;;;2.83;1.60;;;16.60;99.90;;;16.06;100.00;97258.19;5055745;28;20124;-38
2023/04/29 09:49:39;;;;;;;2.38;1.60;;;16.60;99.90;;;16.07;100.00;97249.25;5056039;28;20439;-38
2023/04/29 09:52:08;;;;;;;4.10;2.00;;;16.60;99.90;;;16.08;100.00;97253.63;5055665;28;20040;-38
2023/04/29 09:54:37;;;;;;;2.67;1.73;;;16.60;99.90;;;16.20;100.00;97255.53;5056668;28;20699;-38
2023/04/29 09:57:04;;;;;;;2.63;2.20;;;16.80;99.90;;;16.37;100.00;97265.13;5057155;28;20021;-38
2023/04/29 09:59:34;;;;;;;6.20;1.88;;;16.80;99.90;;;16.53;100.00;97256.19;5039751;28;20048;-38
2023/04/29 10:02:06;;;;;;;4.32;2.85;;;17.00;99.90;;;16.53;100.00;97254.38;5059598;28;20514;-38
2023/04/29 10:04:34;;;;;;;3.30;2.07;;;17.10;99.90;;;16.18;96.59;97261.88;5060192;28;20044;-38
2023/04/29 10:07:01;;;;;;;2.05;1.85;;;17.00;99.90;;;15.78;95.96;97253.69;5058919;28;20294;-38
2023/04/29 10:09:27;;;;;;;3.63;2.13;;;16.70;99.90;;;15.63;100.00;97253.63;5060929;28;20035;-38
2023/04/29 10:11:53;;;;;;;3.75;1.70;;;16.40;99.90;;;15.56;100.00;97246.09;5040837;28;20056;-38
2023/04/29 10:14:24;;;;;;;2.65;1.60;;;16.30;99.90;;;15.84;100.00;97242.66;5061018;28;20381;-38